• Join FlightAware (Why Join?)
  • Login
  • US Flag 
05:53PM EDT


 

Airport Tracker/Info


-or-


 

Live Flight TrackerFlight Track Log ✈ DAL268 ✈ 12-Oct-2013 ✈ KJFK - LLBG / TLV

Flight Track Log - Related Links

Times and Time Zones

All times are in EDT time to prevent confusion due to time zone crossing. See the DAL268 flight status page for this flight to view local times or setup timezone preferences in your user account.

Time Position Orientation Groundspeed Altitude Reporting Facility
EDT Latitude Longitude Course Direction KTS MPH feet Rate Location/Type
12:03AM 40.6460 -73.8090 143° Southeast 115 132  Level FlightAware
12:03AM 40.6390 -73.7930 120° Southeast 145 167 360 Level FlightAware
12:04AM 40.6280 -73.7710 123° Southeast 180 207 300 1,020 Climbing FlightAware
12:04AM 40.6230 -73.7630 129° Southeast 183 211 600 1,560 Climbing FlightAware
12:04AM 40.6180 -73.7570 138° Southeast 188 216 800 1,500 Climbing FlightAware
12:04AM 40.6110 -73.7530 157° South 193 222 1,000 1,920 Climbing FlightAware
12:04AM 40.5930 -73.7460 164° South 194 223 1,700 1,920 Climbing FlightAware
12:05AM 40.5760 -73.7390 163° South 181 208 2,300 2,040 Climbing FlightAware
12:05AM 40.5700 -73.7350 153° Southeast 166 191 2,700 2,280 Climbing FlightAware
12:05AM 40.5630 -73.7270 139° Southeast 162 186 3,100 1,200 Climbing FlightAware
12:05AM 40.5600 -73.7200 119° Southeast 167 192 3,100 360 Level FlightAware
12:05AM 40.5560 -73.7130 127° Southeast 175 201 3,200 300 Climbing FlightAware
12:06AM 40.5510 -73.7010 119° Southeast 191 220 3,200 300 Level FlightAware
12:06AM 40.5390 -73.6750 121° Southeast 217 250 3,400 660 Climbing FlightAware
12:06AM 40.5320 -73.6620 125° Southeast 224 258 3,600 1,080 Climbing FlightAware
12:07AM 40.5210 -73.6370 120° Southeast 240 276 4,000 1,140 Climbing FlightAware
12:07AM 40.5110 -73.6170 123° Southeast 251 289 4,300 1,140 Climbing FlightAware
12:07AM 40.4980 -73.5900 122° Southeast 265 305 4,700 1,500 Climbing FlightAware
12:07AM 40.4860 -73.5670 124° Southeast 271 312 5,300 1,860 Climbing FlightAware
12:08AM 40.4680 -73.5280 121° Southeast 281 323 6,100 1,860 Climbing FlightAware
12:08AM 40.4550 -73.5020 123° Southeast 287 330 6,700 1,980 Climbing FlightAware
12:09AM 40.4410 -73.4710 121° Southeast 290 334 7,400 2,040 Climbing FlightAware
12:09AM 40.4250 -73.4370 122° Southeast 295 339 8,200 1,740 Climbing FlightAware
12:09AM 40.4100 -73.4070 123° Southeast 305 351 8,700 1,920 Climbing FlightAware
12:09AM 40.4000 -73.3870 123° Southeast 308 354 9,200 2,040 Climbing FlightAware
12:10AM 40.3710 -73.3300 124° Southeast 311 358 10,400 1,260 Climbing FlightAware
12:11AM 40.3500 -73.2840 121° Southeast 341 392 10,600 1,020 Climbing FlightAware
12:11AM 40.3080 -73.2080 126° Southeast 368 423 11,600 1,200 Climbing FlightAware
12:12AM 40.2700 -73.1460 129° Southeast 393 452 12,200 1,800 Climbing FlightAware
12:12AM 40.2310 -73.0770 126° Southeast 396 456 13,700 2,040 Climbing FlightAware
12:13AM 40.2180 -73.0460 119° Southeast 404 465 13,900 1,620 Climbing FlightAware
12:13AM 40.2048 -73.0004 111° Southeast 411 473 14,600 2,340 Climbing FlightAware ADS-B (KSNC)
12:13AM 40.1934 -72.9280 102° East 412 474 15,800 2,160 Climbing FlightAware ADS-B (KSNC)
12:14AM 40.1812 -72.8338 100° East 421 484 17,100 1,920 Climbing FlightAware ADS-B (KSNC)
12:15AM 40.1681 -72.7475 101° East 427 491 18,200 1,740 Climbing FlightAware ADS-B (KSNC)
12:15AM 40.1530 -72.6510 102° East 434 499 19,300 1,740 Climbing FlightAware
12:16AM 40.1474 -72.6168 102° East 436 502 19,700 1,740 Climbing FlightAware ADS-B (KSNC)
12:16AM 40.1263 -72.4724 101° East 443 510 21,300 1,680 Climbing FlightAware ADS-B (KSNC)
12:17AM 40.1110 -72.3670 101° East 448 516 22,500 1,560 Climbing FlightAware
12:18AM 40.0980 -72.2900 102° East 451 519 23,200 1,500 Climbing FlightAware
12:18AM 40.0810 -72.1770 101° East 460 529 24,200 1,560 Climbing FlightAware
12:19AM 40.0650 -72.0810 102° East 462 532 25,100 1,200 Climbing FlightAware
12:20AM 40.0500 -71.9790 101° East 471 542 25,700 780 Climbing FlightAware
12:20AM 40.0320 -71.8640 102° East 470 541 26,200 1,620 Climbing FlightAware
12:21AM 40.0150 -71.7640 102° East 471 542 27,800 1,380 Climbing FlightAware
12:22AM 39.9970 -71.6520 102° East 473 544 28,000 120 Climbing FlightAware
12:22AM 39.9850 -71.5660 100° East 473 544 28,000  Level FlightAware
12:23AM 39.9720 -71.4800 101° East 473 544 28,000  Level FlightAware
12:23AM 39.9590 -71.3940 101° East 473 544 28,000  Level FlightAware
12:24AM 39.9460 -71.3090 101° East 473 544 28,000  Level FlightAware
12:25AM 39.9330 -71.2230 101° East 473 544 28,000 2,280 Level FlightAware
12:26AM 39.8581 -70.8819 101° East 488 562 32,700 2,040 Climbing New York Center
12:27AM 39.8250 -70.7117 104° East 488 562 33,000 120 Climbing New York Center
12:28AM 39.7978 -70.5333 101° East 488 562 33,000  Level New York Center
12:29AM 39.7619 -70.3661 106° East 488 562 33,000  Level New York Center
12:30AM 39.7319 -70.1933 103° East 488 562 33,000  Level New York Center
12:31AM 39.7061 -70.0128 100° East 488 562 33,000  Level New York Center
12:32AM 39.6736 -69.8458 104° East 483 556 33,000  Level New York Center
12:33AM 39.6389 -69.6631 104° East 497 572 33,000  Level New York Center
12:34AM 39.6058 -69.4858 104° East 509 586 33,000  Level New York Center
12:35AM 39.5728 -69.3111 104° East 509 586 33,000  Level New York Center
12:36AM 39.5392 -69.1289 103° East 510 587 33,000  Level New York Center
12:37AM 39.5031 -68.9467 104° East 510 587 33,000  Level New York Center
12:38AM 39.4711 -68.7619 103° East 510 587 33,000  Level New York Center
12:39AM 39.4325 -68.5828 106° East 510 587 33,000  Level New York Center
12:40AM 39.3958 -68.4014 105° East 516 594 33,000  Level New York Center
12:41AM 39.3631 -68.2172 103° East 516 594 33,000  Level New York Center
12:42AM 39.3256 -68.0358 105° East 521 600 33,000  Level New York Center
12:43AM 39.2881 -67.8550 105° East 521 600 33,100 420 Climbing New York Center
12:44AM 39.2503 -67.6739 105° East 526 605 33,900 420 Climbing New York Center
12:45AM 39.2139 -67.4881 104° East 531 611 34,000  Climbing New York Center
12:46AM 39.1797 -67.3047 103° East 531 611 34,000  Level New York Center
12:47AM 39.1417 -67.1431 107° East 526 605 34,000  Level New York Center
12:48AM 39.1292 -66.9483 95° East 526 605 34,000  Level New York Center
12:50AM 39.2200 -66.6493 69° East  Level FlightAware Approximate
12:52AM 39.1167 -67.0000 78° East 564 649 34,000  Level New York Oceanic (ODAPS)
12:57AM 39.6296 -65.2941 68° East  Level FlightAware Approximate
12:58AM 39.6883 -65.0999 68° East  Level FlightAware Approximate
12:59AM 39.4394 -64.8197 80° East 564 649 34,000  Level FlightAware Transoceanic
01:00AM 39.4667 -64.6206 80° East 564 649 34,000  Level FlightAware Transoceanic
01:01AM 39.4937 -64.4212 80° East 564 649 34,000  Level FlightAware Transoceanic
01:02AM 39.5203 -64.2217 80° East 564 649 34,000  Level FlightAware Transoceanic
01:03AM 39.5466 -64.0221 80° East 564 649 34,000  Level FlightAware Transoceanic
01:04AM 39.5726 -63.8223 81° East 564 649 34,000  Level FlightAware Transoceanic
01:05AM 39.5982 -63.6223 81° East 564 649 34,000  Level FlightAware Transoceanic
01:06AM 39.6235 -63.4222 81° East 564 649 34,000  Level FlightAware Transoceanic
01:07AM 39.6484 -63.2220 81° East 564 649 34,000  Level FlightAware Transoceanic
01:08AM 39.6730 -63.0216 81° East 564 649 34,000  Level FlightAware Transoceanic
01:09AM 39.6972 -62.8211 81° East 564 649 34,000  Level FlightAware Transoceanic
01:10AM 39.7211 -62.6205 81° East 564 649 34,000  Level FlightAware Transoceanic
01:11AM 39.7446 -62.4197 81° East 564 649 34,000  Level FlightAware Transoceanic
01:12AM 39.7678 -62.2187 82° East 564 649 34,000  Level FlightAware Transoceanic
01:13AM 39.7907 -62.0177 82° East 564 649 34,000  Level FlightAware Transoceanic
01:14AM 39.8132 -61.8165 82° East 564 649 34,000  Level FlightAware Transoceanic
01:15AM 39.8353 -61.6151 82° East 564 649 34,000  Level FlightAware Transoceanic
01:16AM 39.8571 -61.4137 82° East 564 649 34,000  Level FlightAware Transoceanic
01:17AM 39.8786 -61.2121 82° East 564 649 34,000  Level FlightAware Transoceanic
01:18AM 39.8997 -61.0104 82° East 564 649 34,000  Level FlightAware Transoceanic
01:19AM 39.9205 -60.8085 82° East 564 649 34,000  Level FlightAware Transoceanic
01:20AM 39.9409 -60.6066 83° East 564 649 34,000  Level FlightAware Transoceanic
01:21AM 39.9609 -60.4045 83° East 564 649 34,000  Level FlightAware Transoceanic
01:22AM 39.9806 -60.2023 83° East 564 649 34,000  Level FlightAware Transoceanic
01:23AM 40.0000 -60.0000 87° East 564 649 34,000  Level FlightAware Transoceanic
01:24AM 40.0091 -59.7830 87° East 564 649 34,000  Level FlightAware Transoceanic
01:25AM 40.0179 -59.5660 87° East 564 649 34,000  Level FlightAware Transoceanic
01:26AM 40.0262 -59.3489 87° East 564 649 34,000  Level FlightAware Transoceanic
01:27AM 40.0341 -59.1318 87° East 564 649 34,000 600 Level FlightAware Transoceanic
01:27AM 40.0000 -60.0000 87° East 588 677 35,000  Climbing New York Oceanic (ODAPS)
01:28AM 40.0417 -58.9146 87° East 564 649 34,000 -720 Descending FlightAware Transoceanic
01:29AM 40.0488 -58.6974 88° East 564 649 34,000  Level FlightAware Transoceanic
01:30AM 40.0555 -58.4801 88° East 564 649 34,000  Level FlightAware Transoceanic
01:31AM 40.0618 -58.2628 88° East 564 649 34,000  Level FlightAware Transoceanic
01:32AM 40.0677 -58.0455 88° East 564 649 34,000 480 Level FlightAware Transoceanic
01:33AM 40.0771 -57.6616 88° East 588 677 35,000 480 Climbing FlightAware Transoceanic
01:34AM 40.0818 -57.4488 88° East 588 677 35,000  Level FlightAware Transoceanic
01:35AM 40.0861 -57.2359 89° East 588 677 35,000  Level FlightAware Transoceanic
01:36AM 40.0900 -57.0231 89° East 588 677 35,000  Level FlightAware Transoceanic
01:37AM 40.0935 -56.8102 89° East 588 677 35,000  Level FlightAware Transoceanic
01:38AM 40.0966 -56.5973 89° East 588 677 35,000  Level FlightAware Transoceanic
01:39AM 40.0994 -56.3843 89° East 588 677 35,000  Level FlightAware Transoceanic
01:40AM 40.1017 -56.1714 89° East 588 677 35,000  Level FlightAware Transoceanic
01:41AM 40.1036 -55.9584 89° East 588 677 35,000  Level FlightAware Transoceanic
01:42AM 40.1052 -55.7454 90° East 588 677 35,000  Level FlightAware Transoceanic
01:43AM 40.1064 -55.5325 90° East 588 677 35,000  Level FlightAware Transoceanic
01:44AM 40.1072 -55.3195 90° East 588 677 35,000  Level FlightAware Transoceanic
01:45AM 40.1076 -55.1065 90° East 588 677 35,000  Level FlightAware Transoceanic
01:46AM 40.1076 -54.8935 90° East 588 677 35,000  Level FlightAware Transoceanic
01:47AM 40.1072 -54.6805 90° East 588 677 35,000  Level FlightAware Transoceanic
01:48AM 40.1064 -54.4675 90° East 588 677 35,000  Level FlightAware Transoceanic
01:49AM 40.1052 -54.2546 90° East 588 677 35,000  Level FlightAware Transoceanic
01:50AM 40.1036 -54.0416 91° East 588 677 35,000  Level FlightAware Transoceanic
01:51AM 40.1017 -53.8286 91° East 588 677 35,000  Level FlightAware Transoceanic
01:52AM 40.0994 -53.6157 91° East 588 677 35,000  Level FlightAware Transoceanic
01:53AM 40.0966 -53.4027 91° East 588 677 35,000  Level FlightAware Transoceanic
01:54AM 40.0935 -53.1898 91° East 588 677 35,000  Level FlightAware Transoceanic
01:55AM 40.0900 -52.9769 91° East 588 677 35,000  Level FlightAware Transoceanic
01:56AM 40.0861 -52.7641 91° East 588 677 35,000  Level FlightAware Transoceanic
01:57AM 40.0818 -52.5512 92° East 588 677 35,000  Level FlightAware Transoceanic
01:58AM 40.0771 -52.3384 92° East 588 677 35,000  Level FlightAware Transoceanic
01:59AM 40.0721 -52.1256 92° East 588 677 35,000  Level FlightAware Transoceanic
02:00AM 40.0666 -51.9129 92° East 588 677 35,000  Level FlightAware Transoceanic
02:01AM 40.0608 -51.7002 92° East 588 677 35,000  Level FlightAware Transoceanic
02:02AM 40.0545 -51.4875 92° East 588 677 35,000  Level FlightAware Transoceanic
02:03AM 40.0479 -51.2748 92° East 588 677 35,000  Level FlightAware Transoceanic
02:04AM 40.0409 -51.0623 93° East 588 677 35,000  Level FlightAware Transoceanic
02:05AM 40.0335 -50.8497 93° East 588 677 35,000  Level FlightAware Transoceanic
02:06AM 40.0257 -50.6372 93° East 588 677 35,000  Level FlightAware Transoceanic
02:07AM 40.0175 -50.4248 93° East 588 677 35,000  Level FlightAware Transoceanic
02:08AM 40.0089 -50.2123 93° East 588 677 35,000  Level FlightAware Transoceanic
02:09AM 40.0000 -50.0000 79° East 588 677 35,000  Level FlightAware Transoceanic
02:10AM 40.0302 -49.7907 79° East 588 677 35,000  Level FlightAware Transoceanic
02:10AM 40.0000 -50.0000 79° East 589 678 35,000  Level New York Oceanic (ODAPS)
02:11AM 40.0600 -49.5813 80° East 588 677 35,000  Level FlightAware Transoceanic
02:12AM 40.0894 -49.3716 80° East 588 677 35,000  Level FlightAware Transoceanic
02:13AM 40.1184 -49.1618 80° East 588 677 35,000  Level FlightAware Transoceanic
02:14AM 40.1470 -48.9518 80° East 588 677 35,000  Level FlightAware Transoceanic
02:15AM 40.1753 -48.7416 80° East 588 677 35,000  Level FlightAware Transoceanic
02:16AM 40.2307 -48.3208 80° East 589 678 35,000  Level FlightAware Transoceanic
02:17AM 40.2578 -48.1101 80° East 589 678 35,000  Level FlightAware Transoceanic
02:18AM 40.2846 -47.8993 81° East 589 678 35,000  Level FlightAware Transoceanic
02:19AM 40.3110 -47.6882 81° East 589 678 35,000  Level FlightAware Transoceanic
02:20AM 40.3369 -47.4770 81° East 589 678 35,000  Level FlightAware Transoceanic
02:21AM 40.3625 -47.2657 81° East 589 678 35,000  Level FlightAware Transoceanic
02:22AM 40.3877 -47.0542 81° East 589 678 35,000  Level FlightAware Transoceanic
02:23AM 40.4126 -46.8425 81° East 589 678 35,000  Level FlightAware Transoceanic
02:24AM 40.4370 -46.6307 81° East 589 678 35,000  Level FlightAware Transoceanic
02:25AM 40.4610 -46.4187 82° East 589 678 35,000  Level FlightAware Transoceanic
02:26AM 40.4847 -46.2066 82° East 589 678 35,000  Level FlightAware Transoceanic
02:27AM 40.5080 -45.9944 82° East 589 678 35,000  Level FlightAware Transoceanic
02:28AM 40.5309 -45.7819 82° East 589 678 35,000  Level FlightAware Transoceanic
02:29AM 40.5534 -45.5694 82° East 589 678 35,000  Level FlightAware Transoceanic
02:30AM 40.5755 -45.3567 82° East 589 678 35,000  Level FlightAware Transoceanic
02:31AM 40.5972 -45.1438 82° East 589 678 35,000  Level FlightAware Transoceanic
02:32AM 40.6185 -44.9309 83° East 589 678 35,000  Level FlightAware Transoceanic
02:33AM 40.6395 -44.7177 83° East 589 678 35,000  Level FlightAware Transoceanic
02:34AM 40.6600 -44.5045 83° East 589 678 35,000  Level FlightAware Transoceanic
02:35AM 40.6801 -44.2911 83° East 589 678 35,000  Level FlightAware Transoceanic
02:36AM 40.6999 -44.0776 83° East 589 678 35,000  Level FlightAware Transoceanic
02:37AM 40.7193 -43.8640 83° East 589 678 35,000  Level FlightAware Transoceanic
02:38AM 40.7382 -43.6502 83° East 589 678 35,000  Level FlightAware Transoceanic
02:39AM 40.7568 -43.4364 84° East 589 678 35,000  Level FlightAware Transoceanic
02:40AM 40.7750 -43.2224 84° East 589 678 35,000  Level FlightAware Transoceanic
02:41AM 40.7928 -43.0083 84° East 589 678 35,000  Level FlightAware Transoceanic
02:42AM 40.8102 -42.7941 84° East 589 678 35,000  Level FlightAware Transoceanic
02:43AM 40.8272 -42.5797 84° East 589 678 35,000  Level FlightAware Transoceanic
02:44AM 40.8438 -42.3653 84° East 589 678 35,000  Level FlightAware Transoceanic
02:45AM 40.8600 -42.1507 84° East 589 678 35,000  Level FlightAware Transoceanic
02:46AM 40.8758 -41.9361 85° East 589 678 35,000  Level FlightAware Transoceanic
02:47AM 40.8912 -41.7213 85° East 589 678 35,000  Level FlightAware Transoceanic
02:48AM 40.9062 -41.5065 85° East 589 678 35,000  Level FlightAware Transoceanic
02:49AM 40.9208 -41.2915 85° East 589 678 35,000  Level FlightAware Transoceanic
02:50AM 40.9350 -41.0765 85° East 589 678 35,000  Level FlightAware Transoceanic
02:51AM 40.9488 -40.8614 85° East 589 678 35,000  Level FlightAware Transoceanic
02:52AM 40.9622 -40.6462 85° East 589 678 35,000  Level FlightAware Transoceanic
02:53AM 40.9752 -40.4309 85° East 589 678 35,000  Level FlightAware Transoceanic
02:54AM 40.9878 -40.2155 86° East 589 678 35,000  Level FlightAware Transoceanic
02:55AM 41.0000 -40.0000 79° East 589 678 35,000  Level FlightAware Transoceanic
02:56AM 41.0302 -39.7909 79° East 589 678 35,000  Level FlightAware Transoceanic
02:57AM 41.0600 -39.5815 79° East 589 678 35,000  Level FlightAware Transoceanic
02:58AM 41.0895 -39.3720 80° East 589 678 35,000  Level FlightAware Transoceanic
02:59AM 41.1185 -39.1623 80° East 589 678 35,000  Level FlightAware Transoceanic
03:00AM 41.1472 -38.9524 80° East 589 678 35,000  Level FlightAware Transoceanic
03:01AM 41.1755 -38.7423 80° East 589 678 35,000  Level FlightAware Transoceanic
03:02AM 41.0000 -40.0000 79° East 566 651 35,000  Level ETMS Enhanced Traffic Management System
03:02AM 41.2035 -38.5321 80° East 589 678 35,000  Level FlightAware Transoceanic
03:03AM 41.2310 -38.3216 80° East 589 678 35,000  Level FlightAware Transoceanic
03:04AM 41.2581 -38.1110 80° East 589 678 35,000  Level FlightAware Transoceanic
03:05AM 41.2849 -37.9002 80° East 589 678 35,000  Level FlightAware Transoceanic
03:06AM 41.3113 -37.6893 81° East 589 678 35,000  Level FlightAware Transoceanic
03:07AM 41.3373 -37.4781 81° East 589 678 35,000  Level FlightAware Transoceanic
03:08AM 41.3560 -37.3241 81° East 566 651 35,000  Level FlightAware Transoceanic
03:09AM 41.3808 -37.1171 81° East 566 651 35,000  Level FlightAware Transoceanic
03:10AM 41.4053 -36.9099 81° East 566 651 35,000  Level FlightAware Transoceanic
03:11AM 41.4294 -36.7026 81° East 566 651 35,000  Level FlightAware Transoceanic
03:12AM 41.4530 -36.4951 81° East 566 651 35,000  Level FlightAware Transoceanic
03:13AM 41.4764 -36.2875 82° East 566 651 35,000  Level FlightAware Transoceanic
03:14AM 41.4993 -36.0797 82° East 566 651 35,000  Level FlightAware Transoceanic
03:15AM 41.5219 -35.8718 82° East 566 651 35,000  Level FlightAware Transoceanic
03:16AM 41.5441 -35.6637 82° East 566 651 35,000  Level FlightAware Transoceanic
03:17AM 41.5659 -35.4555 82° East 566 651 35,000  Level FlightAware Transoceanic
03:18AM 41.5873 -35.2472 82° East 566 651 35,000  Level FlightAware Transoceanic
03:19AM 41.6084 -35.0387 82° East 566 651 35,000  Level FlightAware Transoceanic
03:20AM 41.6291 -34.8301 83° East 566 651 35,000  Level FlightAware Transoceanic
03:21AM 41.6494 -34.6213 83° East 566 651 35,000  Level FlightAware Transoceanic
03:22AM 41.6694 -34.4125 83° East 566 651 35,000  Level FlightAware Transoceanic
03:23AM 41.6889 -34.2034 83° East 566 651 35,000  Level FlightAware Transoceanic
03:24AM 41.7081 -33.9943 83° East 566 651 35,000  Level FlightAware Transoceanic
03:25AM 41.7269 -33.7851 83° East 566 651 35,000  Level FlightAware Transoceanic
03:26AM 41.7453 -33.5757 83° East 566 651 35,000  Level FlightAware Transoceanic
03:27AM 41.7634 -33.3662 83° East 566 651 35,000  Level FlightAware Transoceanic
03:28AM 41.7811 -33.1566 84° East 566 651 35,000  Level FlightAware Transoceanic
03:29AM 41.7983 -32.9468 84° East 566 651 35,000  Level FlightAware Transoceanic
03:30AM 41.8152 -32.7370 84° East 566 651 35,000  Level FlightAware Transoceanic
03:31AM 41.8317 -32.5271 84° East 566 651 35,000  Level FlightAware Transoceanic
03:32AM 41.8479 -32.3170 84° East 566 651 35,000  Level FlightAware Transoceanic
03:32AM 41.8770 -32.2530 84° East 575 662 35,000  Level FlightAware
03:33AM 41.8636 -32.1068 84° East 566 651 35,000  Level FlightAware Transoceanic
03:33AM 41.8870 -32.1270 84° East 577 664 35,000  Level FlightAware
03:34AM 41.8960 -31.9960 85° East 580 667 35,000  Level FlightAware
03:34AM 41.9040 -31.8880 84° East 583 671 35,000  Level FlightAware
03:35AM 41.9140 -31.7660 84° East 583 671 35,000  Level FlightAware
03:35AM 41.9230 -31.6210 85° East 581 669 35,000  Level FlightAware
03:36AM 41.9320 -31.4900 85° East 581 669 35,000  Level FlightAware
03:37AM 41.9400 -31.3730 85° East 581 669 35,000  Level FlightAware
03:37AM 41.9480 -31.2520 85° East 579 666 35,000  Level FlightAware
03:38AM 41.9570 -31.1180 85° East 580 667 35,000  Level FlightAware
03:38AM 41.9640 -31.0000 85° East 579 666 35,000  Level FlightAware
03:39AM 41.9720 -30.8680 85° East 580 667 35,000  Level FlightAware
03:39AM 41.9800 -30.7450 85° East 583 671 35,000  Level FlightAware
03:40AM 41.9880 -30.6200 85° East 585 673 35,000  Level FlightAware
03:41AM 41.9950 -30.4960 86° East 585 673 35,000  Level FlightAware
03:41AM 42.0030 -30.3650 85° East 585 673 35,000  Level FlightAware
03:42AM 42.0090 -30.2460 86° East 585 673 35,000  Level FlightAware
03:42AM 42.0170 -30.1140 85° East 586 674 35,000  Level FlightAware
03:43AM 42.0260 -29.9810 85° East 587 676 35,000  Level FlightAware
03:44AM 42.0430 -29.8490 80° East 587 676 35,000  Level FlightAware
03:44AM 42.0600 -29.7320 79° East 587 676 35,000  Level FlightAware
03:45AM 42.0770 -29.6080 79° East 588 677 35,000  Level FlightAware
03:45AM 42.0960 -29.4740 79° East 588 677 35,000  Level FlightAware
03:46AM 42.1140 -29.3500 79° East 588 677 35,000  Level FlightAware
03:47AM 42.1310 -29.2340 79° East 588 677 35,000  Level FlightAware
03:47AM 42.1540 -29.0540 80° East 588 677 35,000  Level FlightAware
03:48AM 42.1710 -28.9290 80° East 588 677 35,000  Level FlightAware
03:48AM 42.1890 -28.7970 80° East 589 678 35,000  Level FlightAware
03:49AM 42.2040 -28.6830 80° East 590 679 35,000  Level FlightAware
03:50AM 42.2210 -28.5570 80° East 589 678 35,000  Level FlightAware
03:50AM 42.2390 -28.4200 80° East 588 677 35,000  Level FlightAware
03:51AM 42.2520 -28.3160 80° East 588 677 35,000  Level FlightAware
03:52AM 42.2760 -28.1320 80° East 588 677 35,000  Level FlightAware
03:52AM 42.2940 -27.9890 80° East 589 678 35,000  Level FlightAware
03:53AM 42.3090 -27.8650 81° East 588 677 35,000  Level FlightAware
03:53AM 42.3260 -27.7340 80° East 588 677 35,000  Level FlightAware
03:54AM 42.3410 -27.6230 80° East 588 677 35,000  Level FlightAware
03:55AM 42.3550 -27.5120 80° East 588 677 35,000  Level FlightAware
03:55AM 42.3700 -27.3980 80° East 588 677 35,000  Level FlightAware
03:56AM 42.3840 -27.2870 80° East 588 677 35,000  Level FlightAware
03:56AM 42.3990 -27.1760 80° East 588 677 35,000  Level FlightAware
03:57AM 42.4220 -26.9230 83° East 579 666 35,000  Level FlightAware
03:58AM 42.4390 -26.7780 81° East 579 666 35,000  Level FlightAware
03:58AM 42.4530 -26.6550 81° East 579 666 35,000  Level FlightAware
03:59AM 42.4690 -26.5100 81° East 581 669 35,000  Level FlightAware
04:00AM 42.4830 -26.3940 81° East 583 671 35,000  Level FlightAware
04:00AM 42.5000 -26.2440 81° East 583 671 35,000  Level FlightAware
04:01AM 42.5130 -26.1340 81° East 583 671 35,000  Level FlightAware
04:02AM 42.5250 -26.0230 82° East 583 671 35,000  Level FlightAware
04:02AM 42.5380 -25.9120 81° East 583 671 35,000  Level FlightAware
04:03AM 42.5510 -25.8020 81° East 583 671 35,000  Level FlightAware
04:03AM 42.5640 -25.6910 81° East 583 671 35,000  Level FlightAware
04:04AM 42.5770 -25.5800 81° East 583 671 35,000  Level FlightAware
04:05AM 42.5900 -25.4700 81° East 583 671 35,000  Level FlightAware
04:05AM 42.6030 -25.3590 81° East 583 671 35,000  Level FlightAware
04:06AM 42.6160 -25.2480 81° East 583 671 35,000  Level FlightAware
04:06AM 42.6290 -25.1370 81° East 583 671 35,000  Level FlightAware
04:07AM 42.6420 -25.0270 81° East 583 671 35,000  Level FlightAware
04:08AM 42.6540 -24.9160 82° East 583 671 35,000  Level FlightAware
04:08AM 42.6680 -24.8020 80° East 583 671 35,000  Level FlightAware
04:09AM 42.6810 -24.6910 81° East 583 671 35,000  Level FlightAware
04:09AM 42.6930 -24.5800 82° East 583 671 35,000  Level FlightAware
04:12AM 42.7370 -24.1212 82° East  Level Estimated
04:13AM 42.7572 -23.9042 83° East  Level Estimated
04:14AM 42.7769 -23.6871 83° East  Level Estimated
04:15AM 42.7963 -23.4699 83° East  Level Estimated
04:16AM 42.8152 -23.2525 83° East  Level Estimated
04:17AM 42.8337 -23.0350 83° East  Level Estimated
04:18AM 42.8518 -22.8174 83° East  Level Estimated
04:19AM 42.8695 -22.5996 84° East  Level Estimated
04:20AM 42.8868 -22.3817 84° East  Level Estimated
04:21AM 42.9037 -22.1637 84° East  Level Estimated
04:22AM 42.9201 -21.9456 84° East  Level Estimated
04:23AM 42.9362 -21.7273 84° East  Level Estimated
04:24AM 42.9518 -21.5090 84° East  Level Estimated
04:25AM 42.9670 -21.2905 84° East  Level Estimated
04:26AM 42.9818 -21.0719 85° East  Level Estimated
04:27AM 42.9962 -20.8533 85° East  Level Estimated
04:28AM 43.0101 -20.6345 85° East  Level Estimated
04:29AM 43.0237 -20.4156 85° East  Level Estimated
04:30AM 43.0368 -20.1966 85° East  Level Estimated
04:31AM 43.0495 -19.9776 85° East  Level Estimated
04:32AM 43.0618 -19.7584 86° East  Level Estimated
04:33AM 43.0737 -19.5388 86° East  Level Estimated
04:34AM 43.0852 -19.3191 86° East  Level Estimated
04:35AM 43.0962 -19.0993 86° East  Level Estimated
04:36AM 43.1068 -18.8795 86° East  Level Estimated
04:37AM 43.1170 -18.6596 86° East  Level Estimated
04:38AM 43.1268 -18.4396 86° East  Level Estimated
04:39AM 43.1362 -18.2195 87° East  Level Estimated
04:40AM 43.1451 -17.9993 87° East  Level Estimated
04:41AM 43.1537 -17.7792 87° East  Level Estimated
04:42AM 43.1618 -17.5589 87° East  Level Estimated
04:43AM 43.1694 -17.3386 87° East  Level Estimated
04:44AM 43.1767 -17.1182 87° East  Level Estimated
04:45AM 43.1835 -16.8978 87° East  Level Estimated
04:46AM 43.1899 -16.6773 88° East  Level Estimated
04:47AM 43.1959 -16.4568 88° East  Level Estimated
04:48AM 43.2015 -16.2362 88° East  Level Estimated
04:49AM 43.2066 -16.0156 88° East  Level Estimated
04:50AM 43.2114 -15.7950 88° East  Level Estimated
04:51AM 43.2156 -15.5743 88° East  Level Estimated
04:52AM 43.2195 -15.3537 89° East  Level Estimated
04:53AM 43.2230 -15.1329 89° East  Level Estimated
04:54AM 43.2260 -14.9122 89° East  Level Estimated
04:55AM 43.2286 -14.6914 89° East  Level Estimated
04:56AM 43.2307 -14.4706 89° East  Level Estimated
04:57AM 43.2325 -14.2499 89° East  Level Estimated
04:58AM 43.2338 -14.0290 89° East  Level Estimated
04:59AM 43.2347 -13.8082 90° East  Level Estimated
05:00AM 43.2352 -13.5874 90° East  Level Estimated
05:01AM 43.2352 -13.3666 90° East  Level Estimated
05:02AM 43.2349 -13.1458 90° East  Level Estimated
05:03AM 43.2341 -12.9257 90° East  Level Estimated
05:04AM 43.2328 -12.7057 90° East  Level Estimated
05:05AM 43.2312 -12.4856 91° East  Level Estimated
05:06AM 43.2291 -12.2656 91° East  Level Estimated
05:07AM 43.2266 -12.0456 91° East  Level Estimated
05:08AM 43.2237 -11.8256 91° East  Level Estimated
05:08AM 42.3870 -11.9290 91° East 553 636 36,000  Level FlightAware
05:09AM 42.3780 -11.8090 96° East 553 636 36,000  Level FlightAware
05:09AM 42.3700 -11.6900 95° East 552 635 36,000  Level FlightAware
05:10AM 42.3580 -11.5340 96° East 552 635 36,000  Level FlightAware
05:11AM 42.3510 -11.4300 95° East 552 635 36,000  Level FlightAware
05:11AM 42.3410 -11.3030 96° East 551 634 36,000  Level FlightAware
05:12AM 42.3320 -11.1910 96° East 552 635 36,000  Level FlightAware
05:12AM 42.3210 -11.0550 96° East 552 635 36,000  Level FlightAware
05:13AM 42.3110 -10.9360 96° East 551 634 36,000  Level FlightAware
05:13AM 42.3060 -10.8360 94° East 551 634 36,000  Level FlightAware
05:14AM 42.3110 -10.7630 85° East 541 623 36,000  Level FlightAware
05:14AM 42.3360 -10.6570 72° East 532 612 36,000  Level FlightAware
05:15AM 42.3660 -10.5480 70° East 531 611 36,000  Level FlightAware
05:15AM 42.3940 -10.4490 69° East 533 613 36,000  Level FlightAware
05:16AM 42.4300 -10.3220 69° East 533 613 36,000  Level FlightAware
05:17AM 42.4620 -10.2080 69° East 533 613 36,000  Level FlightAware
05:17AM 42.4920 -10.0980 70° East 534 615 36,000  Level FlightAware
05:18AM 42.5210 -9.9900 70° East 534 615 36,000  Level FlightAware
05:18AM 42.5520 -9.8780 69° East 534 615 36,000  Level FlightAware
05:19AM 42.5810 -9.7690 70° East 534 615 36,000  Level FlightAware
05:20AM 42.6110 -9.6590 70° East 535 616 36,000  Level FlightAware
05:20AM 42.6400 -9.5490 70° East 534 615 36,000  Level FlightAware
05:21AM 42.6700 -9.4400 69° East 535 616 36,000  Level FlightAware
05:21AM 42.5690 -9.8147 250° West 534 615 36,000  Level FlightAware ADS-B
05:22AM 42.7290 -9.2160 70° East 535 616 36,000  Level FlightAware
05:22AM 42.7570 -9.1090 70° East 536 617 36,000  Level FlightAware
05:23AM 42.7588 -9.1023 70° East 535 616 36,000  Level FlightAware ADS-B
05:24AM 42.8211 -8.8636 70° East 534 615 36,000  Level FlightAware ADS-B
05:24AM 42.8538 -8.7371 71° East 533 613 36,000  Level FlightAware ADS-B
05:25AM 42.8876 -8.6058 71° East 534 615 36,000  Level FlightAware ADS-B
05:26AM 42.9122 -8.5099 71° East 533 613 36,000  Level FlightAware ADS-B
05:26AM 42.9305 -8.4128 76° East 545 627 36,000  Level FlightAware ADS-B
05:27AM 42.9320 -8.3138 89° East 556 640 36,000  Level FlightAware ADS-B
05:27AM 42.9280 -8.2596 96° East 556 640 36,000  Level FlightAware ADS-B
05:28AM 42.9172 -8.0690 94° East 556 640 36,000  Level FlightAware ADS-B
05:28AM 42.9101 -7.9566 95° East 556 640 36,000  Level FlightAware ADS-B
05:29AM 42.9011 -7.8222 95° East 555 639 36,000  Level FlightAware ADS-B
05:29AM 42.8937 -7.7145 95° East 555 639 36,000  Level FlightAware ADS-B
05:30AM 42.8837 -7.5764 96° East 554 638 36,000  Level FlightAware ADS-B
05:31AM 42.8761 -7.4714 96° East 554 638 36,000  Level FlightAware ADS-B
05:31AM 42.8684 -7.3646 96° East 553 636 36,000  Level FlightAware ADS-B
05:32AM 42.8607 -7.2599 96° East 554 638 36,000  Level FlightAware ADS-B
05:32AM 42.8530 -7.1541 96° East 553 636 36,000  Level FlightAware ADS-B
05:33AM 42.8421 -7.0031 96° East 552 635 36,000  Level FlightAware ADS-B
05:33AM 42.8344 -6.8970 96° East 551 634 36,000  Level FlightAware ADS-B
05:34AM 42.8272 -6.7957 95° East 551 634 36,000  Level FlightAware ADS-B
05:34AM 42.8197 -6.6922 96° East 550 633 36,000  Level FlightAware ADS-B
05:35AM 42.8124 -6.5954 96° East 550 633 36,000  Level FlightAware ADS-B
05:35AM 42.8040 -6.4910 96° East 549 632 36,000  Level FlightAware
05:36AM 42.7960 -6.3880 96° East 548 631 36,000  Level FlightAware
05:37AM 42.7850 -6.2520 96° East 547 629 36,000  Level FlightAware
05:37AM 42.7740 -6.1300 97° East 546 628 36,000  Level FlightAware
05:38AM 42.7630 -5.9970 96° East 543 625 36,000  Level FlightAware
05:38AM 42.7520 -5.8780 97° East 541 623 36,000  Level FlightAware
05:39AM 42.7420 -5.7590 96° East 540 621 36,000  Level FlightAware
05:40AM 42.7320 -5.6430 97° East 540 621 36,000  Level FlightAware
05:40AM 42.7220 -5.5260 97° East 539 620 36,000  Level FlightAware
05:41AM 42.7110 -5.4060 97° East 538 619 36,000  Level FlightAware
05:41AM 42.7000 -5.2890 97° East 539 620 36,000  Level FlightAware
05:42AM 42.6900 -5.1720 97° East 539 620 36,000  Level FlightAware
05:42AM 42.6800 -5.0530 96° East 540 621 36,000  Level FlightAware
05:43AM 42.6680 -4.9210 97° East 540 621 36,000  Level FlightAware
05:44AM 42.6570 -4.7970 97° East 540 621 36,000  Level FlightAware
05:44AM 42.6470 -4.6880 97° East 539 620 36,000  Level FlightAware
05:45AM 42.6340 -4.5470 97° East 538 619 36,000  Level FlightAware
05:45AM 42.6240 -4.4460 98° East 538 619 36,000  Level FlightAware
05:46AM 42.6140 -4.3350 97° East 537 618 36,000  Level FlightAware
05:47AM 42.6010 -4.2110 98° East 537 618 36,000  Level FlightAware
05:47AM 42.5900 -4.0970 97° East 536 617 36,000  Level FlightAware
05:48AM 42.5790 -3.9820 97° East 536 617 36,000  Level FlightAware
05:48AM 42.5680 -3.8750 98° East 536 617 36,000  Level FlightAware
05:49AM 42.5530 -3.7270 98° East 536 617 36,000  Level FlightAware
05:50AM 42.5390 -3.5930 98° East 536 617 36,000  Level FlightAware
05:50AM 42.5280 -3.4930 98° East 536 617 36,000  Level FlightAware
05:51AM 42.5160 -3.3810 98° East 536 617 36,000  Level FlightAware
05:51AM 42.5020 -3.2520 98° East 537 618 36,000  Level FlightAware
05:52AM 42.4900 -3.1430 98° East 538 619 36,000  Level FlightAware
05:53AM 42.4770 -3.0230 98° East 539 620 36,000  Level FlightAware
05:53AM 42.4610 -2.8840 99° East 540 621 36,000  Level FlightAware
05:54AM 42.4400 -2.7660 104° East 538 619 36,000  Level FlightAware
05:54AM 42.4180 -2.6560 105° East 538 619 36,000  Level FlightAware
05:55AM 42.3840 -2.4920 106° East 537 618 36,000  Level FlightAware
05:56AM 42.3580 -2.3700 106° East 536 617 36,000  Level FlightAware
05:57AM 42.3310 -2.2400 106° East 537 618 36,000  Level FlightAware
05:57AM 42.3090 -2.1340 106° East 537 618 36,000  Level FlightAware
05:58AM 42.2840 -2.0160 106° East 537 618 36,000  Level FlightAware
05:58AM 42.2590 -1.8970 106° East 537 618 36,000  Level FlightAware
05:59AM 42.2370 -1.7940 106° East 537 618 36,000  Level FlightAware
06:00AM 42.2100 -1.6740 107° East 537 618 36,000  Level FlightAware
06:00AM 42.1850 -1.5610 107° East 536 617 36,000  Level FlightAware
06:01AM 42.1620 -1.4530 106° East 534 615 36,000  Level FlightAware
06:01AM 42.1390 -1.3500 107° East 532 612 36,000  Level FlightAware
06:02AM 42.1140 -1.2340 106° East 531 611 36,000  Level FlightAware
06:02AM 42.0870 -1.1140 107° East 531 611 36,000  Level FlightAware
06:03AM 42.0630 -1.0080 107° East 531 611 36,000  Level FlightAware
06:04AM 42.0400 -0.9010 106° East 531 611 36,000  Level FlightAware
06:04AM 42.0140 -0.7880 107° East 532 612 36,000  Level FlightAware
06:05AM 41.9880 -0.6710 107° East 532 612 36,000  Level FlightAware
06:05AM 41.9630 -0.5600 107° East 533 613 36,000  Level FlightAware
06:06AM 41.9400 -0.4570 107° East 533 613 36,000  Level FlightAware
06:07AM 41.9130 -0.3410 107° East 532 612 36,000  Level FlightAware
06:07AM 41.8880 -0.2330 107° East 532 612 36,000  Level FlightAware
06:08AM 41.8620 -0.1220 107° East 533 613 36,000  Level FlightAware
06:08AM 41.8370 -0.0140 107° East 533 613 36,000  Level FlightAware
06:09AM 41.8100 0.1030 107° East 534 615 36,000  Level FlightAware
06:09AM 41.7840 0.2130 108° East 534 615 36,000  Level FlightAware
06:10AM 41.7600 0.3150 107° East 536 617 36,000  Level FlightAware
06:11AM 41.7350 0.4190 108° East 537 618 36,000  Level FlightAware
06:11AM 41.7184 0.4901 107° East 537 618 36,000  Level FlightAware ADS-B
06:11AM 41.6985 0.5752 107° East 539 620 36,000  Level FlightAware ADS-B
06:12AM 41.6635 0.7234 107° East 539 620 36,000  Level FlightAware ADS-B
06:13AM 41.6310 0.8522 109° East 538 619 36,000  Level FlightAware ADS-B
06:13AM 41.6060 0.9465 109° East 540 621 36,000  Level FlightAware ADS-B
06:14AM 41.5817 1.0392 109° East 540 621 36,000  Level FlightAware ADS-B
06:14AM 41.5568 1.1327 110° East 540 621 36,000  Level FlightAware ADS-B
06:15AM 41.5259 1.2554 109° East 540 621 36,000  Level FlightAware ADS-B
06:15AM 41.5029 1.3579 107° East 539 620 36,000  Level FlightAware ADS-B
06:16AM 41.4743 1.4841 107° East 539 620 36,000  Level FlightAware ADS-B
06:17AM 41.4520 1.5804 107° East 538 619 36,000  Level FlightAware ADS-B
06:17AM 41.4224 1.7058 107° East 538 619 36,000  Level FlightAware ADS-B
06:18AM 41.3997 1.7970 108° East 536 617 36,000  Level FlightAware ADS-B
06:18AM 41.3689 1.9143 109° East 537 618 36,000  Level FlightAware ADS-B
06:19AM 41.3457 2.0190 106° East 538 619 36,000  Level FlightAware ADS-B
06:20AM 41.3217 2.1452 104° East 540 621 36,000  Level FlightAware ADS-B
06:20AM 41.2971 2.2824 103° East 539 620 36,000  Level FlightAware ADS-B
06:21AM 41.2720 2.4240 103° East 538 619 36,000  Level FlightAware
06:22AM 41.2540 2.5280 103° East 537 618 36,000  Level FlightAware
06:22AM 41.2310 2.6570 103° East 536 617 36,000  Level FlightAware
06:23AM 41.2140 2.7610 102° East 536 617 36,000  Level FlightAware
06:23AM 41.1940 2.8710 104° East 536 617 36,000  Level FlightAware
06:24AM 41.1730 2.9930 103° East 536 617 36,000  Level FlightAware
06:25AM 41.1530 3.1030 104° East 535 616 36,000  Level FlightAware
06:25AM 41.1350 3.2030 103° East 535 616 36,000  Level FlightAware
06:26AM 41.1140 3.3240 103° East 534 615 36,000  Level FlightAware
06:26AM 41.0940 3.4360 103° East 533 613 36,000  Level FlightAware
06:27AM 41.0730 3.5510 104° East 531 611 36,000  Level FlightAware
06:27AM 41.0540 3.6510 104° East 532 612 36,000  Level FlightAware
06:28AM 41.0350 3.7540 104° East 529 609 36,000  Level FlightAware
06:29AM 41.0130 3.8750 104° East 532 612 36,000  Level FlightAware
06:29AM 40.9910 3.9880 104° East 532 612 36,000  Level FlightAware
06:30AM 40.9760 4.0710 103° East 532 612 36,000  Level FlightAware
06:30AM 40.9500 4.2070 104° East 531 611 36,000  Level FlightAware
06:31AM 40.9290 4.3180 104° East 530 610 36,000  Level FlightAware
06:32AM 40.9070 4.4310 104° East 529 609 36,000  Level FlightAware
06:32AM 40.8870 4.5320 105° East 529 609 36,000  Level FlightAware
06:33AM 40.8670 4.6380 104° East 528 608 36,000  Level FlightAware
06:33AM 40.8490 4.7550 101° East 530 610 36,000  Level FlightAware
06:34AM 40.8380 4.8730 97° East 530 610 36,000  Level FlightAware
06:34AM 40.8280 4.9740 97° East 530 610 36,000  Level FlightAware
06:35AM 40.8160 5.0970 97° East 529 609 36,000  Level FlightAware
06:36AM 40.8060 5.2060 97° East 528 608 36,000  Level FlightAware
06:36AM 40.7950 5.3140 98° East 528 608 36,000  Level FlightAware
06:37AM 40.7840 5.4280 97° East 527 606 36,000  Level FlightAware
06:37AM 40.7720 5.5450 98° East 527 606 36,000  Level FlightAware
06:38AM 40.7610 5.6530 98° East 527 606 36,000  Level FlightAware
06:39AM 40.7490 5.7720 98° East 528 608 36,000  Level FlightAware
06:39AM 40.7360 5.9000 98° East 529 609 36,000  Level FlightAware
06:40AM 40.7240 6.0110 98° East 530 610 36,000  Level FlightAware
06:40AM 40.7130 6.1210 97° East 529 609 36,000  Level FlightAware
06:41AM 40.7010 6.2340 98° East 530 610 36,000  Level FlightAware
06:42AM 40.6890 6.3450 98° East 531 611 36,000  Level FlightAware
06:42AM 40.6750 6.4750 98° East 530 610 36,000  Level FlightAware
06:43AM 40.6640 6.5840 98° East 530 610 36,000  Level FlightAware
06:43AM 40.6520 6.6980 98° East 529 609 36,000  Level FlightAware
06:44AM 40.6380 6.8250 98° East 529 609 36,000  Level FlightAware
06:45AM 40.6270 6.9210 99° East 529 609 36,000  Level FlightAware
06:45AM 40.6130 7.0480 98° East 529 609 36,000  Level FlightAware
06:46AM 40.6030 7.1440 98° East 529 609 36,000  Level FlightAware
06:46AM 40.5900 7.2590 98° East 529 609 36,000  Level FlightAware
06:47AM 40.5770 7.3690 99° East 529 609 36,000  Level FlightAware
06:48AM 40.5670 7.4820 97° East 533 613 36,000  Level FlightAware
06:48AM 40.5700 7.5930 88° East 536 617 36,000  Level FlightAware
06:49AM 40.5690 7.7500 90° East 533 613 36,000  Level FlightAware
06:50AM 40.5530 7.8670 100° East 531 611 36,000  Level FlightAware
06:50AM 40.5350 7.9790 102° East 532 612 36,000 60 Level FlightAware
06:51AM 40.5180 8.0890 101° East 533 613 36,100 480 Climbing FlightAware
06:51AM 40.5000 8.2000 102° East 538 619 36,600 720 Climbing FlightAware
06:52AM 40.4810 8.3120 103° East 539 620 37,000 300 Climbing FlightAware
06:52AM 40.4630 8.4240 102° East 537 618 37,000  Level FlightAware
06:53AM 40.4440 8.5360 103° East 537 618 37,000  Level FlightAware
06:54AM 40.4250 8.6460 103° East 535 616 37,000  Level FlightAware
06:54AM 40.4030 8.7730 103° East 535 616 37,000  Level FlightAware
06:55AM 40.3810 8.8990 103° East 532 612 37,000  Level FlightAware
06:55AM 40.3640 8.9940 103° East 532 612 37,000  Level FlightAware
06:56AM 40.3440 9.1050 103° East 532 612 37,000  Level FlightAware
06:57AM 40.3230 9.2250 103° East 533 613 37,000  Level FlightAware
06:57AM 40.3020 9.3370 104° East 534 615 37,000  Level FlightAware
06:58AM 40.2750 9.4890 103° East 534 615 37,000  Level FlightAware
06:59AM 40.2550 9.6000 103° East 534 615 37,000  Level FlightAware
06:59AM 40.2330 9.7260 103° East 532 612 37,000  Level FlightAware
07:00AM 40.2100 9.8510 104° East 530 610 37,000  Level FlightAware
07:01AM 40.1960 9.9280 103° East 529 609 37,000  Level FlightAware
07:01AM 40.1720 10.0580 104° East 529 609 37,000  Level FlightAware
07:02AM 40.1520 10.1690 103° East 527 606 37,000  Level FlightAware
07:02AM 40.1320 10.2760 104° East 527 606 37,000  Level FlightAware
07:03AM 40.1100 10.3910 104° East 528 608 37,000  Level FlightAware
07:03AM 40.0910 10.4950 103° East 528 608 37,000  Level FlightAware
07:04AM 40.0700 10.6050 104° East 528 608 37,000  Level FlightAware
07:05AM 40.0490 10.7160 104° East 528 608 37,000  Level FlightAware
07:05AM 40.0270 10.8280 104° East 527 606 37,000  Level FlightAware
07:06AM 40.0090 10.9240 104° East 527 606 37,000  Level FlightAware
07:06AM 39.9870 11.0390 104° East 527 606 37,000  Level FlightAware
07:07AM 39.9690 11.1320 104° East 527 606 37,000  Level FlightAware
07:08AM 39.9450 11.2520 105° East 527 606 37,000  Level FlightAware
07:08AM 39.9250 11.3550 104° East 527 606 37,000  Level FlightAware
07:09AM 39.9020 11.4730 104° East 526 605 37,000  Level FlightAware
07:09AM 39.8770 11.5980 105° East 525 604 37,000  Level FlightAware
07:10AM 39.8550 11.7060 105° East 523 602 37,000  Level FlightAware
07:11AM 39.8360 11.8020 104° East 522 601 37,000  Level FlightAware
07:11AM 39.8130 11.9170 105° East 521 600 37,000  Level FlightAware
07:12AM 39.7930 12.0170 105° East 520 598 37,000  Level FlightAware
07:12AM 39.7710 12.1240 105° East 520 598 37,000  Level FlightAware
07:13AM 39.7470 12.2390 105° East 519 597 37,000  Level FlightAware
07:14AM 39.7260 12.3410 105° East 519 597 37,000  Level FlightAware
07:14AM 39.7040 12.4470 105° East 519 597 37,000  Level FlightAware
07:15AM 39.6830 12.5430 106° East 518 596 37,000  Level FlightAware
07:15AM 39.6640 12.6350 105° East 518 596 37,000  Level FlightAware
07:16AM 39.6390 12.7530 105° East 518 596 37,000  Level FlightAware
07:16AM 39.6160 12.8620 105° East 518 596 37,000  Level FlightAware
07:17AM 39.5920 12.9740 106° East 518 596 37,000  Level FlightAware
07:18AM 39.5720 13.0700 105° East 517 595 37,000  Level FlightAware
07:18AM 39.5480 13.1790 106° East 517 595 37,000  Level FlightAware
07:19AM 39.5240 13.2900 106° East 518 596 37,000  Level FlightAware
07:19AM 39.5030 13.3850 106° East 518 596 37,000  Level FlightAware
07:20AM 39.4780 13.4990 106° East 518 596 37,000  Level FlightAware
07:20AM 39.4570 13.5950 106° East 518 596 37,000  Level FlightAware
07:21AM 39.4330 13.7030 106° East 518 596 37,000  Level FlightAware
07:22AM 39.4120 13.7980 106° East 517 595 37,000  Level FlightAware
07:22AM 39.3900 13.8980 106° East 517 595 37,000  Level FlightAware
07:23AM 39.3640 14.0120 106° East 517 595 37,000  Level FlightAware
07:23AM 39.3400 14.1160 107° East 516 594 37,000  Level FlightAware
07:24AM 39.3150 14.2230 107° East 516 594 37,000  Level FlightAware
07:25AM 39.2930 14.3180 107° East 515 593 37,000  Level FlightAware
07:25AM 39.2600 14.4170 113° Southeast 512 589 37,000  Level FlightAware
07:26AM 39.2210 14.5190 116° Southeast 510 587 37,000  Level FlightAware
07:26AM 39.1910 14.5980 116° Southeast 510 587 37,000  Level FlightAware
07:27AM 39.1510 14.7040 116° Southeast 508 585 37,000  Level FlightAware
07:27AM 39.1140 14.8010 116° Southeast 508 585 37,000  Level FlightAware
07:28AM 39.0760 14.8980 117° Southeast 508 585 37,000  Level FlightAware
07:29AM 39.0410 14.9890 116° Southeast 507 583 37,000  Level FlightAware
07:29AM 39.0050 15.0830 116° Southeast 507 583 37,000  Level FlightAware
07:30AM 38.9660 15.1820 117° Southeast 507 583 37,000  Level FlightAware
07:30AM 38.9270 15.2810 117° Southeast 507 583 37,000  Level FlightAware
07:31AM 38.8950 15.3620 117° Southeast 507 583 37,000  Level FlightAware
07:32AM 38.8560 15.4610 117° Southeast 506 582 37,000  Level FlightAware
07:32AM 38.8180 15.5590 116° Southeast 505 581 37,000  Level FlightAware
07:33AM 38.7830 15.6480 117° Southeast 504 580 37,000  Level FlightAware
07:33AM 38.7470 15.7390 117° Southeast 504 580 37,000  Level FlightAware
07:34AM 38.7080 15.8370 117° Southeast 504 580 37,000  Level FlightAware
07:35AM 38.6700 15.9310 117° Southeast 502 578 37,000  Level FlightAware
07:35AM 38.6350 16.0150 118° Southeast 501 577 37,000  Level FlightAware
07:36AM 38.5990 16.1140 115° Southeast 500 575 37,000  Level FlightAware
07:36AM 38.5840 16.1990 103° East 497 572 37,000  Level FlightAware
07:37AM 38.5760 16.2930 96° East 497 572 37,000  Level FlightAware
07:37AM 38.5660 16.3880 98° East 497 572 37,000  Level FlightAware
07:38AM 38.5550 16.5110 96° East 497 572 37,000  Level FlightAware
07:38AM 38.5450 16.6050 98° East 497 572 37,000  Level FlightAware
07:39AM 38.5360 16.6990 97° East 498 573 37,000  Level FlightAware
07:40AM 38.5260 16.8020 97° East 498 573 37,000  Level FlightAware
07:40AM 38.5150 16.9140 97° East 497 572 37,000  Level FlightAware
07:41AM 38.5050 17.0110 97° East 496 571 37,000  Level FlightAware
07:41AM 38.4950 17.1100 97° East 495 570 37,000  Level FlightAware
07:42AM 38.4840 17.2180 97° East 495 570 37,000  Level FlightAware
07:43AM 38.4740 17.3230 97° East 494 568 37,000  Level FlightAware
07:43AM 38.4650 17.4110 97° East 494 568 37,000  Level FlightAware
07:44AM 38.4530 17.5180 98° East 494 568 37,000  Level FlightAware
07:44AM 38.4420 17.6240 98° East 494 568 37,000  Level FlightAware
07:45AM 38.4320 17.7260 97° East 494 568 37,000  Level FlightAware
07:45AM 38.4220 17.8180 98° East 495 570 37,000  Level FlightAware
07:46AM 38.4100 17.9240 98° East 496 571 37,000  Level FlightAware
07:47AM 38.3990 18.0250 98° East 497 572 37,000  Level FlightAware
07:47AM 38.3890 18.1200 98° East 498 573 37,000  Level FlightAware
07:48AM 38.3780 18.2250 98° East 499 574 37,000  Level FlightAware
07:48AM 38.3660 18.3310 98° East 499 574 37,000  Level FlightAware
07:49AM 38.3550 18.4340 98° East 500 575 37,000  Level FlightAware
07:50AM 38.3440 18.5330 98° East 500 575 37,000  Level FlightAware
07:50AM 38.3320 18.6380 98° East 501 577 37,000  Level FlightAware
07:51AM 38.3200 18.7450 98° East 502 578 37,000  Level FlightAware
07:51AM 38.3090 18.8330 99° East 503 579 37,000  Level FlightAware
07:52AM 38.2970 18.9410 98° East 505 581 37,000  Level FlightAware
07:53AM 38.2850 19.0410 99° East 505 581 37,000  Level FlightAware
07:53AM 38.2750 19.1310 98° East 505 581 37,000  Level FlightAware
07:54AM 38.2520 19.2320 106° East 502 578 37,000  Level FlightAware
07:54AM 38.2360 19.2900 109° East 508 585 37,000  Level FlightAware
07:55AM 38.2050 19.4000 110° East 507 583 37,000  Level FlightAware
07:55AM 38.1730 19.5140 110° East 505 581 37,000  Level FlightAware
07:56AM 38.1460 19.6110 109° East 503 579 37,000  Level FlightAware
07:57AM 38.1140 19.7270 109° East 501 577 37,000  Level FlightAware
07:57AM 38.0780 19.8530 110° East 500 575 37,000  Level FlightAware
07:58AM 38.0380 19.9950 110° East 498 573 37,000  Level FlightAware
07:59AM 38.0120 20.0890 109° East 498 573 37,000  Level FlightAware
07:59AM 37.9800 20.1950 111° Southeast 495 570 37,000  Level FlightAware
08:00AM 37.9500 20.3020 110° East 495 570 37,000  Level FlightAware
08:00AM 37.9270 20.3800 110° East 495 570 37,000  Level FlightAware
08:01AM 37.9000 20.4740 110° East 495 570 37,000  Level FlightAware
08:02AM 37.8670 20.5850 111° Southeast 497 572 37,000  Level FlightAware
08:02AM 37.8410 20.6730 110° East 496 571 37,000  Level FlightAware
08:03AM 37.8130 20.7700 110° East 498 573 37,000  Level FlightAware
08:03AM 37.7820 20.8730 111° Southeast 498 573 37,000  Level FlightAware
08:04AM 37.7530 20.9720 110° East 498 573 37,000  Level FlightAware
08:05AM 37.7240 21.0720 110° East 499 574 37,000  Level FlightAware
08:05AM 37.6920 21.1750 111° Southeast 500 575 37,000  Level FlightAware
08:06AM 37.6660 21.2640 110° East 500 575 37,000  Level FlightAware
08:06AM 37.6370 21.3600 111° Southeast 500 575 37,000  Level FlightAware
08:07AM 37.6080 21.4570 111° Southeast 499 574 37,000  Level FlightAware
08:08AM 37.5780 21.5590 110° East 496 571 37,000  Level FlightAware
08:08AM 37.5490 21.6530 111° Southeast 495 570 37,000  Level FlightAware
08:09AM 37.5210 21.7450 111° Southeast 493 567 37,000  Level FlightAware
08:09AM 37.4930 21.8380 111° Southeast 491 565 37,000  Level FlightAware
08:10AM 37.4650 21.9310 111° Southeast 491 565 37,000  Level FlightAware
08:11AM 37.4360 22.0230 112° Southeast 491 565 37,000  Level FlightAware
08:11AM 37.4080 22.1160 111° Southeast 491 565 37,000  Level FlightAware
08:12AM 37.3840 22.1930 111° Southeast 492 566 37,000  Level FlightAware
08:12AM 37.3490 22.3050 111° Southeast 495 570 37,000  Level FlightAware
08:13AM 37.3210 22.3940 112° Southeast 495 570 37,000  Level FlightAware
08:13AM 37.2900 22.4920 112° Southeast 495 570 37,000  Level FlightAware
08:14AM 37.2590 22.5890 112° Southeast 494 568 37,000  Level FlightAware
08:15AM 37.2330 22.6710 112° Southeast 495 570 37,000  Level FlightAware
08:15AM 37.2020 22.7690 112° Southeast 495 570 37,000  Level FlightAware
08:16AM 37.1720 22.8620 112° Southeast 495 570 37,000  Level FlightAware
08:16AM 37.1410 22.9590 112° Southeast 496 571 37,000  Level FlightAware
08:17AM 37.1130 23.0480 112° Southeast 497 572 37,000  Level FlightAware
08:18AM 37.0840 23.1400 112° Southeast 496 571 37,000  Level FlightAware
08:18AM 37.0530 23.2390 111° Southeast 495 570 37,000  Level FlightAware
08:19AM 37.0210 23.3380 112° Southeast 496 571 37,000  Level FlightAware
08:19AM 36.9940 23.4220 112° Southeast 497 572 37,000  Level FlightAware
08:20AM 36.9620 23.5210 112° Southeast 496 571 37,000  Level FlightAware
08:20AM 36.9350 23.6050 112° Southeast 496 571 37,000  Level FlightAware
08:21AM 36.9040 23.7010 112° Southeast 497 572 37,000  Level FlightAware
08:22AM 36.8720 23.7970 113° Southeast 497 572 37,000  Level FlightAware
08:22AM 36.8460 23.8790 112° Southeast 497 572 37,000  Level FlightAware
08:23AM 36.8130 23.9760 113° Southeast 498 573 37,000  Level FlightAware
08:23AM 36.7800 24.0740 113° Southeast 498 573 37,000  Level FlightAware
08:24AM 36.7480 24.1700 113° Southeast 497 572 37,000  Level FlightAware
08:25AM 36.7180 24.2560 113° Southeast 497 572 37,000  Level FlightAware
08:25AM 36.6870 24.3480 113° Southeast 498 573 37,000  Level FlightAware
08:26AM 36.6560 24.4390 113° Southeast 497 572 37,000  Level FlightAware
08:26AM 36.6220 24.5410 113° Southeast 498 573 37,000  Level FlightAware
08:27AM 36.5940 24.6200 114° Southeast 499 574 37,000  Level FlightAware
08:27AM 36.5610 24.7190 113° Southeast 500 575 37,000  Level FlightAware
08:28AM 36.5280 24.8140 113° Southeast 500 575 37,000  Level FlightAware
08:29AM 36.4990 24.8990 113° Southeast 502 578 37,000  Level FlightAware
08:29AM 36.4650 24.9940 114° Southeast 503 579 37,000  Level FlightAware
08:30AM 36.4340 25.0850 113° Southeast 504 580 37,000  Level FlightAware
08:30AM 36.3990 25.1850 113° Southeast 505 581 37,000  Level FlightAware
08:31AM 36.3670 25.2770 113° Southeast 506 582 37,000  Level FlightAware
08:32AM 36.3350 25.3690 113° Southeast 506 582 37,000  Level FlightAware
08:32AM 36.3000 25.4700 113° Southeast 507 583 37,000  Level FlightAware
08:33AM 36.2700 25.5540 114° Southeast 507 583 37,000  Level FlightAware
08:33AM 36.2360 25.6480 114° Southeast 506 582 37,000  Level FlightAware
08:34AM 36.2010 25.7470 114° Southeast 506 582 37,000  Level FlightAware
08:34AM 36.1680 25.8400 114° Southeast 505 581 37,000  Level FlightAware
08:35AM 36.1370 25.9260 114° Southeast 506 582 37,000  Level FlightAware
08:36AM 36.1040 26.0190 114° Southeast 506 582 37,000  Level FlightAware
08:36AM 36.0690 26.1170 114° Southeast 506 582 37,000  Level FlightAware
08:37AM 36.0350 26.2110 114° Southeast 508 585 37,000  Level FlightAware
08:37AM 36.0040 26.2960 114° Southeast 508 585 37,000  Level FlightAware
08:38AM 35.9690 26.3910 114° Southeast 507 583 37,000  Level FlightAware
08:39AM 35.9350 26.4860 114° Southeast 508 585 37,000  Level FlightAware
08:39AM 35.9040 26.5710 114° Southeast 508 585 37,000  Level FlightAware
08:40AM 35.8680 26.6660 115° Southeast 509 586 37,000  Level FlightAware
08:40AM 35.8270 26.7800 114° Southeast 508 585 37,000  Level FlightAware
08:41AM 35.7800 26.9080 114° Southeast 508 585 37,000  Level FlightAware
08:42AM 35.7380 27.0180 115° Southeast 509 586 37,000  Level FlightAware
08:43AM 35.7030 27.1120 115° Southeast 508 585 37,000  Level FlightAware
08:43AM 35.6670 27.2080 115° Southeast 508 585 37,000  Level FlightAware
08:44AM 35.6350 27.2930 115° Southeast 509 586 37,000  Level FlightAware
08:44AM 35.6000 27.3870 115° Southeast 506 582 37,000  Level FlightAware
08:45AM 35.5630 27.4850 115° Southeast 507 583 37,000  Level FlightAware
08:45AM 35.5290 27.5740 115° Southeast 510 587 37,000  Level FlightAware
08:46AM 35.4960 27.6630 114° Southeast 510 587 37,000  Level FlightAware
08:47AM 35.4590 27.7580 116° Southeast 511 588 37,000  Level FlightAware
08:47AM 35.4280 27.8410 115° Southeast 511 588 37,000  Level FlightAware
08:48AM 35.3910 27.9370 115° Southeast 510 587 37,000  Level FlightAware
08:48AM 35.3530 28.0360 115° Southeast 511 588 37,000  Level FlightAware
08:49AM 35.3180 28.1260 115° Southeast 512 589 37,000  Level FlightAware
08:49AM 35.2860 28.2090 115° Southeast 513 590 37,000  Level FlightAware
08:50AM 35.2530 28.2950 115° Southeast 510 587 37,000  Level FlightAware
08:51AM 35.2120 28.3990 116° Southeast 514 592 37,000  Level FlightAware
08:51AM 35.1800 28.4800 116° Southeast 514 592 37,000  Level FlightAware
08:52AM 35.1440 28.5710 116° Southeast 514 592 37,000  Level FlightAware
08:53AM 35.0910 28.7050 116° Southeast 514 592 37,000  Level FlightAware
08:53AM 35.0550 28.7960 116° Southeast 513 590 37,000  Level FlightAware
08:54AM 35.0220 28.8780 116° Southeast 514 592 37,000  Level FlightAware
08:55AM 34.9720 29.0050 116° Southeast 514 592 37,000  Level FlightAware
08:55AM 34.9250 29.1260 115° Southeast 514 592 37,000  Level FlightAware
08:56AM 34.8850 29.2240 116° Southeast 514 592 37,000  Level FlightAware
08:57AM 34.8420 29.3330 116° Southeast 513 590 37,000  Level FlightAware
08:57AM 34.7960 29.4480 116° Southeast 513 590 37,000  Level FlightAware
08:58AM 34.7530 29.5560 116° Southeast 513 590 37,000  Level FlightAware
08:59AM 34.7170 29.6450 116° Southeast 513 590 37,000  Level FlightAware
08:59AM 34.6810 29.7340 116° Southeast 512 589 37,000  Level FlightAware
09:00AM 34.6400 29.8360 116° Southeast 513 590 37,000  Level FlightAware
09:00AM 34.6120 29.9040 117° Southeast 513 590 37,000  Level FlightAware
09:01AM 34.5790 29.9860 116° Southeast 513 590 37,000  Level FlightAware
09:02AM 34.5310 30.0890 119° Southeast 513 590 37,000  Level FlightAware
09:02AM 34.4750 30.2060 120° Southeast 514 592 37,000  Level FlightAware
09:03AM 34.4350 30.2870 121° Southeast 515 593 37,000  Level FlightAware
09:03AM 34.3930 30.3740 120° Southeast 516 594 37,000  Level FlightAware
09:04AM 34.3490 30.4650 120° Southeast 517 595 37,000  Level FlightAware
09:05AM 34.3050 30.5550 121° Southeast 513 590 37,000  Level FlightAware
09:05AM 34.2620 30.6430 121° Southeast 513 590 37,000  Level FlightAware
09:06AM 34.2170 30.7330 121° Southeast 514 592 37,000  Level FlightAware
09:07AM 34.1680 30.8330 121° Southeast 514 592 37,000  Level FlightAware
09:07AM 34.1240 30.9220 121° Southeast 515 593 37,000  Level FlightAware
09:08AM 34.0890 30.9930 121° Southeast 515 593 37,000  Level FlightAware
09:08AM 34.0380 31.0960 121° Southeast 516 594 37,000  Level FlightAware
09:09AM 33.9960 31.1790 121° Southeast 517 595 37,000  Level FlightAware
09:09AM 33.9510 31.2710 121° Southeast 518 596 37,000  Level FlightAware
09:10AM 33.9130 31.3470 121° Southeast 518 596 37,000  Level FlightAware
09:11AM 33.8730 31.4280 121° Southeast 518 596 37,000  Level FlightAware
09:11AM 33.8270 31.5210 121° Southeast 519 597 37,000  Level FlightAware
09:12AM 33.7830 31.6090 121° Southeast 520 598 37,000  Level FlightAware
09:12AM 33.7320 31.7120 121° Southeast 520 598 37,000  Level FlightAware
09:13AM 33.6950 31.7870 121° Southeast 520 598 37,000  Level FlightAware
09:14AM 33.6520 31.8740 121° Southeast 519 597 37,000  Level FlightAware
09:14AM 33.6070 31.9630 121° Southeast 520 598 37,000  Level FlightAware
09:15AM 33.5640 32.0490 121° Southeast 519 597 37,000  Level FlightAware
09:15AM 33.5140 32.1490 121° Southeast 519 597 37,000  Level FlightAware
09:16AM 33.4780 32.2200 121° Southeast 523 602 37,000  Level FlightAware
09:16AM 33.4320 32.3110 121° Southeast 523 602 37,000  Level FlightAware
09:17AM 33.3860 32.4010 121° Southeast 523 602 37,000  Level FlightAware
09:18AM 33.3410 32.4900 121° Southeast 524 603 37,000 -180 Level FlightAware
09:18AM 33.3060 32.5590 121° Southeast 525 604 36,800 -1,440 Descending FlightAware
09:19AM 33.2540 32.6610 121° Southeast 515 593 35,400 -2,220 Descending FlightAware
09:19AM 33.2100 32.7470 121° Southeast 506 582 34,100 -2,160 Descending FlightAware
09:20AM 33.1620 32.8410 121° Southeast 503 579 32,700 -2,100 Descending FlightAware
09:21AM 33.1440 32.8740 123° Southeast 491 565 31,600 -2,220 Descending FlightAware
09:21AM 33.0810 32.9970 121° Southeast 482 555 30,200 -2,340 Descending FlightAware
09:22AM 33.0400 33.0780 121° Southeast 472 543 28,900 -2,160 Descending FlightAware
09:22AM 32.9970 33.1660 120° Southeast 459 528 27,500 -2,040 Descending FlightAware
09:23AM 32.9460 33.2660 121° Southeast 442 509 26,000 -2,040 Descending FlightAware
09:24AM 32.9110 33.3360 121° Southeast 432 497 24,800 -2,040 Descending FlightAware
09:24AM 32.8720 33.4150 120° Southeast 420 483 23,600 -1,980 Descending FlightAware
09:25AM 32.8360 33.4850 121° Southeast 408 470 22,400 -1,860 Descending FlightAware
09:26AM 32.8060 33.5460 120° Southeast 395 455 21,500 -1,680 Descending FlightAware
09:26AM 32.7720 33.6110 122° Southeast 386 444 20,500 -1,740 Descending FlightAware
09:27AM 32.7380 33.6770 121° Southeast 378 435 19,400 -1,800 Descending FlightAware
09:27AM 32.7100 33.7330 121° Southeast 370 426 18,500 -1,800 Descending FlightAware
09:28AM 32.6790 33.7950 121° Southeast 364 419 17,400 -1,800 Descending FlightAware
09:29AM 32.6460 33.8600 121° Southeast 358 412 16,300 -1,740 Descending FlightAware
09:29AM 32.6150 33.9210 121° Southeast 349 402 15,300 -1,380 Descending FlightAware
09:30AM 32.5910 33.9680 121° Southeast 322 371 14,800 -1,200 Descending FlightAware
09:30AM 32.5630 34.0240 121° Southeast 302 348 14,000 -1,440 Descending FlightAware
09:30AM 32.5520 34.0430 124° Southeast 300 345 13,600 -1,500 Descending FlightAware
09:31AM 32.5430 34.0530 137° Southeast 298 343 13,400 -2,040 Descending FlightAware
09:31AM 32.5280 34.0620 153° Southeast 303 349 12,900 -2,400 Descending FlightAware
09:31AM 32.5160 34.0640 172° South 304 350 12,600 -1,680 Descending FlightAware
09:32AM 32.4710 34.0620 182° South 303 349 11,800 -1,500 Descending FlightAware
09:32AM 32.4240 34.0600 182° South 298 343 11,000 -1,380 Descending FlightAware
09:33AM 32.3560 34.0670 175° South 295 339 9,900 -1,440 Descending FlightAware
09:33AM 32.3460 34.0760 143° Southeast 296 341 9,600 -2,040 Descending FlightAware
09:33AM 32.3420 34.0810 133° Southeast 297 342 9,500 -1,620 Descending FlightAware
09:33AM 32.3320 34.1030 118° Southeast 296 341 9,100 -1,140 Descending FlightAware
09:34AM 32.3240 34.1340 107° East 291 335 8,800 -1,080 Descending FlightAware
09:34AM 32.3190 34.1550 106° East 287 330 8,500 -1,380 Descending FlightAware
09:34AM 32.3110 34.1920 104° East 283 326 8,000 -660 Descending FlightAware
09:35AM 32.3010 34.2360 105° East 281 323 7,900 -240 Descending FlightAware
09:38AM 32.1034 34.6717 125° Southeast  Level Estimated
09:38AM 32.2400 34.4650 125° Southeast 6,100  Level FlightAware
09:40AM 32.0555 34.7695 115° Southeast  Level FlightAware Approximate
09:41AM 32.0000 34.8667 125° Southeast  Level FlightAware Approximate
09:42AM 32.0095 34.8769 125° Southeast  Level Estimated
09:43AM 32.0095 34.8769 125° Southeast  Level Estimated
09:44AM 32.0095 34.8769 125° Southeast  Level Estimated
09:45AM 32.0095 34.8769 125° Southeast  Level Estimated
09:46AM 32.0095 34.8769 125° Southeast  Level Estimated
09:47AM 32.0095 34.8769 125° Southeast  Level Estimated
09:48AM 32.0095 34.8769 125° Southeast  Level Estimated
09:49AM 32.0095 34.8769 125° Southeast  Level Estimated